Time;durP1;ratioP1;P1;durP2;ratioP2;P2;SDS_P1;SDS_P2;PMS_P1;PMS_P2;Temp;Humidity;BMP_temperature;BMP_pressure;BME280_temperature;BME280_humidity;BME280_pressure;Samples;Min_cycle;Max_cycle;Signal;HPM_P1;HPM_P2
2022/03/23 00:01:50;;;;;;;8.00;2.88;;;;;;;1.21;58.50;97533.19;5115806;28;20023;-68
2022/03/23 00:04:16;;;;;;;3.63;2.25;;;;;;;1.21;58.50;97535.75;5115659;28;20027;-68
2022/03/23 00:06:44;;;;;;;7.18;3.05;;;;;;;1.05;59.85;97529.50;5115699;28;20026;-68
2022/03/23 00:09:09;;;;;;;6.57;2.80;;;;;;;0.91;59.68;97526.72;5115629;28;20512;-67
2022/03/23 00:11:35;;;;;;;4.57;2.90;;;;;;;0.96;60.58;97521.66;5115576;28;20019;-67
2022/03/23 00:14:01;;;;;;;10.65;3.30;;;;;;;0.93;62.91;97529.34;5115769;27;20018;-67
2022/03/23 00:16:26;;;;;;;3.97;2.60;;;;;;;1.15;63.81;97532.22;5115373;28;20468;-67
2022/03/23 00:18:52;;;;;;;4.38;2.47;;;;;;;1.37;63.25;97536.88;5115506;28;20023;-67
2022/03/23 00:21:17;;;;;;;4.15;2.40;;;;;;;1.62;62.66;97526.03;5114430;28;20020;-67
2022/03/23 00:23:43;;;;;;;4.18;2.38;;;;;;;1.77;62.25;97530.50;5115280;28;20137;-68
2022/03/23 00:26:08;;;;;;;6.05;2.30;;;;;;;1.91;61.49;97537.56;5115240;28;20024;-68
2022/03/23 00:28:34;;;;;;;8.52;2.65;;;;;;;2.06;61.11;97537.78;5115276;28;20026;-68
2022/03/23 00:30:59;;;;;;;6.57;2.25;;;;;;;2.11;60.36;97533.50;5115282;28;20019;-68
2022/03/23 00:33:25;;;;;;;4.88;2.17;;;;;;;2.18;60.42;97534.47;5115222;28;20020;-68
2022/03/23 00:35:51;;;;;;;7.80;2.95;;;;;;;2.25;60.03;97538.84;5115008;28;20041;-68
2022/03/23 00:38:18;;;;;;;7.18;2.70;;;;;;;2.29;59.59;97544.94;5115075;28;20126;-68
2022/03/23 00:40:44;;;;;;;8.35;2.45;;;;;;;2.26;59.78;97539.72;5114867;28;20043;-68
2022/03/23 00:43:11;;;;;;;7.15;2.50;;;;;;;2.20;59.81;97535.31;5115186;28;20023;-68
2022/03/23 00:45:37;;;;;;;8.10;2.72;;;;;;;2.33;59.20;97541.53;5115018;28;20541;-67
2022/03/23 00:48:04;;;;;;;6.70;2.50;;;;;;;2.22;59.07;97545.69;5114892;28;20031;-67
2022/03/23 00:50:30;;;;;;;5.43;2.50;;;;;;;2.05;59.40;97541.22;5114800;28;20035;-67
2022/03/23 00:52:55;;;;;;;5.22;2.38;;;;;;;1.95;59.92;97542.78;5114743;28;20012;-68
2022/03/23 00:55:21;;;;;;;6.53;2.55;;;;;;;1.95;59.52;97536.75;5114671;28;20023;-68
2022/03/23 00:57:48;;;;;;;5.57;2.30;;;;;;;1.85;60.01;97546.09;5114677;28;20042;-68
2022/03/23 01:00:17;;;;;;;7.50;2.40;;;;;;;1.92;59.85;97537.59;5114686;28;20095;-68
2022/03/23 01:02:45;;;;;;;4.93;2.55;;;;;;;1.80;59.32;97546.03;5114633;27;20036;-68
2022/03/23 01:05:12;;;;;;;8.73;2.92;;;;;;;1.70;59.65;97546.75;5114521;28;20028;-68
2022/03/23 01:07:39;;;;;;;3.90;2.00;;;;;;;1.63;59.46;97544.09;5114549;28;20020;-68
2022/03/23 01:10:07;;;;;;;10.70;3.00;;;;;;;1.55;59.54;97547.41;5114502;28;20080;-67
2022/03/23 01:12:34;;;;;;;4.60;2.05;;;;;;;1.45;59.52;97552.47;5114275;28;20024;-67
2022/03/23 01:15:00;;;;;;;5.13;2.20;;;;;;;1.30;60.68;97537.63;5114166;28;20024;-67
2022/03/23 01:17:25;;;;;;;5.25;1.98;;;;;;;1.18;60.19;97540.91;5114307;28;20546;-68
2022/03/23 01:19:51;;;;;;;4.35;2.22;;;;;;;1.00;60.36;97538.88;5114395;28;20023;-67
2022/03/23 01:22:17;;;;;;;5.45;1.98;;;;;;;0.88;60.73;97539.56;5114399;28;20024;-67
2022/03/23 01:24:44;;;;;;;8.52;2.72;;;;;;;0.78;60.96;97524.78;5114092;28;20457;-68
2022/03/23 01:27:09;;;;;;;4.13;2.05;;;;;;;0.73;61.17;97529.84;5114196;28;20054;-68
2022/03/23 01:29:35;;;;;;;5.78;2.10;;;;;;;0.63;61.05;97529.69;5114054;28;20047;-68
2022/03/23 01:32:01;;;;;;;6.28;2.35;;;;;;;0.56;61.18;97526.97;5113745;28;20024;-68
2022/03/23 01:34:26;;;;;;;4.40;1.90;;;;;;;0.46;61.37;97526.84;5113939;28;20022;-67
2022/03/23 01:36:52;;;;;;;7.78;2.08;;;;;;;0.34;61.88;97526.59;5113943;28;20067;-68
2022/03/23 01:39:17;;;;;;;7.38;2.30;;;;;;;0.33;62.32;97524.88;5113648;28;20041;-68
2022/03/23 01:41:43;;;;;;;6.32;2.00;;;;;;;0.33;61.88;97518.00;5114033;28;20073;-68
2022/03/23 01:44:19;;;;;;;7.18;2.35;;;;;;;0.15;61.98;97521.09;5113959;28;20538;-68
2022/03/23 01:47:04;;;;;;;4.15;2.20;;;;;;;0.08;63.42;97519.22;5113860;28;20023;-67
2022/03/23 01:49:30;;;;;;;4.60;2.00;;;;;;;0.10;62.37;97521.03;5113755;28;20026;-68
2022/03/23 01:51:55;;;;;;;3.70;2.10;;;;;;;0.07;61.99;97518.38;5113761;28;20019;-68
2022/03/23 01:54:21;;;;;;;9.25;4.47;;;;;;;-0.07;61.94;97510.38;5113585;28;20020;-68
2022/03/23 01:56:49;;;;;;;6.07;3.22;;;;;;;-0.20;62.56;97511.84;5113626;28;20095;-68
2022/03/23 01:59:16;;;;;;;5.55;2.22;;;;;;;-0.30;62.72;97503.06;5113835;28;20027;-67
2022/03/23 02:01:42;;;;;;;4.57;2.17;;;;;;;-0.36;63.22;97505.50;5113775;28;20373;-68
2022/03/23 02:04:08;;;;;;;4.47;2.22;;;;;;;-0.34;64.45;97503.84;5113559;28;20019;-68
2022/03/23 02:06:35;;;;;;;5.40;2.30;;;;;;;-0.31;63.95;97501.34;5113537;28;20495;-68
2022/03/23 02:09:00;;;;;;;8.65;2.65;;;;;;;-0.30;64.52;97500.50;5113712;28;20051;-68
2022/03/23 02:11:27;;;;;;;5.95;2.30;;;;;;;-0.23;63.87;97495.47;5113614;28;20073;-68
2022/03/23 02:13:53;;;;;;;5.03;2.70;;;;;;;-0.20;63.79;97498.13;5113504;28;20026;-68
2022/03/23 02:16:19;;;;;;;11.48;2.85;;;;;;;-0.08;64.40;97493.22;5113321;28;20111;-68
2022/03/23 02:18:46;;;;;;;6.40;3.60;;;;;;;0.03;63.78;97480.53;5113547;28;20016;-68
2022/03/23 02:21:15;;;;;;;9.75;2.83;;;;;;;0.18;63.44;97492.00;5113530;28;20016;-68
2022/03/23 02:23:41;;;;;;;9.70;2.90;;;;;;;0.22;63.03;97492.06;5113496;28;20026;-68
2022/03/23 02:26:08;;;;;;;7.72;2.55;;;;;;;0.29;63.12;97499.88;5113369;28;20020;-67
2022/03/23 02:28:34;;;;;;;14.48;2.47;;;;;;;0.36;62.86;97500.03;5113310;28;20062;-67
2022/03/23 02:31:01;;;;;;;5.07;2.10;;;;;;;0.36;62.58;97492.31;5113288;28;20024;-68
2022/03/23 02:33:26;;;;;;;4.80;2.38;;;;;;;0.45;62.66;97493.34;5113413;28;20015;-68
2022/03/23 02:35:52;;;;;;;5.15;1.75;;;;;;;0.47;62.23;97489.94;5113257;28;20393;-68
2022/03/23 02:38:17;;;;;;;7.22;2.28;;;;;;;0.46;62.35;97498.50;5113470;28;20118;-68
2022/03/23 02:40:44;;;;;;;5.70;2.20;;;;;;;0.45;62.20;97489.03;5112935;28;20050;-68
2022/03/23 02:43:09;;;;;;;5.55;2.30;;;;;;;0.49;62.33;97502.84;5113601;28;20031;-68
2022/03/23 02:45:35;;;;;;;6.43;2.65;;;;;;;0.50;62.11;97490.00;5117241;28;20035;-68
2022/03/23 02:48:03;;;;;;;5.70;2.47;;;;;;;0.57;62.10;97490.09;5117309;28;20024;-68
2022/03/23 02:50:29;;;;;;;6.00;2.40;;;;;;;0.53;61.81;97496.00;5117180;28;20072;-67
2022/03/23 03:04:07;;;;;;;5.55;2.47;;;;;;;0.39;63.12;97501.78;5116941;28;20499;-68
2022/03/23 03:06:32;;;;;;;8.45;2.58;;;;;;;0.44;62.84;97496.72;5116922;28;20031;-68
2022/03/23 03:08:58;;;;;;;9.45;2.00;;;;;;;0.58;62.53;97494.41;5116879;28;20434;-68
2022/03/23 03:11:25;;;;;;;6.68;2.20;;;;;;;0.63;62.19;97498.78;5116726;28;20080;-68
2022/03/23 03:13:51;;;;;;;7.47;2.47;;;;;;;0.63;61.93;97496.22;5116724;28;20484;-68
2022/03/23 03:16:18;;;;;;;4.28;1.92;;;;;;;0.66;61.86;97492.81;5116648;28;20031;-68
2022/03/23 03:18:46;;;;;;;6.15;2.35;;;;;;;0.70;61.20;97492.03;5116609;28;20019;-68
2022/03/23 03:21:13;;;;;;;4.90;2.20;;;;;;;0.61;61.42;97489.31;5116483;28;20032;-68
2022/03/23 03:23:44;;;;;;;5.40;2.08;;;;;;;0.61;60.94;97492.72;5116471;28;20030;-68
2022/03/23 03:26:09;;;;;;;;;;;;;;;0.60;60.95;97485.84;5116939;28;20027;-68
2022/03/23 03:28:37;;;;;;;6.70;2.20;;;;;;;0.41;61.67;97487.25;5116538;28;19965;-68
2022/03/23 03:31:04;;;;;;;2.92;1.73;;;;;;;0.34;60.77;97486.28;5116348;28;20027;-68
2022/03/23 03:33:30;;;;;;;4.72;2.10;;;;;;;0.43;60.43;97489.84;5116262;28;20102;-68
2022/03/23 03:35:56;;;;;;;7.00;2.70;;;;;;;0.44;60.49;97494.16;5116196;28;20054;-68
2022/03/23 03:38:21;;;;;;;5.35;2.50;;;;;;;0.47;60.49;97489.94;5116340;28;20465;-68
2022/03/23 03:40:47;;;;;;;6.28;2.17;;;;;;;0.47;60.04;97482.22;5116142;28;20073;-68
2022/03/23 03:43:12;;;;;;;13.07;2.40;;;;;;;0.48;60.13;97486.50;5116205;28;20047;-68
2022/03/23 03:45:38;;;;;;;8.15;2.28;;;;;;;0.52;59.58;97479.72;5116261;28;20048;-68
2022/03/23 03:48:04;;;;;;;8.07;2.45;;;;;;;0.63;59.11;97479.88;5116089;28;20023;-68
2022/03/23 03:50:29;;;;;;;5.90;1.77;;;;;;;0.84;58.10;97478.50;5116079;28;20046;-68
2022/03/23 03:52:55;;;;;;;4.70;1.80;;;;;;;0.98;56.84;97477.00;5115932;28;20020;-68
2022/03/23 03:55:21;;;;;;;5.03;1.90;;;;;;;1.18;56.38;97478.16;5115775;27;20020;-68
2022/03/23 03:57:47;;;;;;;3.53;1.65;;;;;;;1.26;56.02;97472.25;5115930;28;20096;-68
2022/03/23 04:00:15;;;;;;;6.25;2.13;;;;;;;1.33;55.81;97468.06;5115956;27;20405;-68
2022/03/23 04:02:40;;;;;;;6.63;2.20;;;;;;;1.25;55.27;97444.75;5115924;28;20103;-68
2022/03/23 04:05:06;;;;;;;3.30;2.08;;;;;;;1.45;55.06;97458.75;5115716;28;20084;-68
2022/03/23 04:07:33;;;;;;;5.65;2.40;;;;;;;1.41;55.52;97465.56;5115847;28;20491;-68
2022/03/23 04:10:06;;;;;;;8.43;2.38;;;;;;;1.53;55.68;97464.00;5115640;28;20042;-68
2022/03/23 04:12:31;;;;;;;5.93;2.40;;;;;;;1.55;55.51;97467.47;5115754;28;20034;-68
2022/03/23 04:14:57;;;;;;;6.35;2.40;;;;;;;1.48;55.90;97467.38;5115613;28;20028;-67
2022/03/23 04:17:22;;;;;;;8.68;2.42;;;;;;;1.44;55.81;97467.34;5115463;28;20020;-67
2022/03/23 04:19:48;;;;;;;7.18;2.53;;;;;;;1.47;55.74;97478.53;5115646;28;20462;-68
2022/03/23 04:22:13;;;;;;;4.95;2.35;;;;;;;1.28;56.19;97467.13;5115322;28;20469;-68
2022/03/23 04:24:39;;;;;;;4.95;2.30;;;;;;;1.06;56.46;97484.00;5115339;27;20035;-68
2022/03/23 04:27:05;;;;;;;5.05;2.53;;;;;;;1.10;57.29;97478.03;5115237;28;20026;-68
2022/03/23 04:29:31;;;;;;;5.80;2.15;;;;;;;1.07;57.23;97478.84;5115207;28;20024;-68
2022/03/23 04:31:56;;;;;;;3.92;1.95;;;;;;;1.02;57.07;97479.63;5115237;28;20145;-68
2022/03/23 04:34:22;;;;;;;9.13;2.30;;;;;;;1.03;57.14;97473.63;5115083;28;20031;-67
2022/03/23 04:36:48;;;;;;;4.82;2.53;;;;;;;0.94;57.26;97469.22;5115211;28;20024;-67
2022/03/23 04:39:13;;;;;;;7.55;2.40;;;;;;;0.90;57.33;97485.47;5114880;28;20038;-68
2022/03/23 04:41:39;;;;;;;9.05;2.50;;;;;;;0.84;56.89;97471.63;5114984;28;20026;-68
2022/03/23 04:44:04;;;;;;;11.27;2.92;;;;;;;0.87;57.08;97465.66;5114999;28;20019;-68
2022/03/23 04:46:30;;;;;;;7.68;2.83;;;;;;;0.88;57.77;97477.72;5115116;28;20023;-68
2022/03/23 04:48:56;;;;;;;8.20;2.55;;;;;;;0.93;57.24;97473.47;5114926;28;20015;-68
2022/03/23 04:51:21;;;;;;;8.40;2.38;;;;;;;0.93;57.30;97478.63;5114877;28;20416;-68
2022/03/23 04:53:47;;;;;;;8.50;3.13;;;;;;;0.92;57.61;97469.19;5114677;28;20019;-68
2022/03/23 04:56:12;;;;;;;8.25;2.72;;;;;;;0.98;57.63;97469.28;5114553;28;20015;-68
2022/03/23 04:58:38;;;;;;;7.30;2.75;;;;;;;1.09;57.57;97487.47;5114654;28;20363;-68
2022/03/23 05:01:04;;;;;;;4.65;2.55;;;;;;;1.62;56.65;97482.16;5114690;28;20044;-68
2022/03/23 05:03:30;;;;;;;6.35;2.78;;;;;;;2.58;55.16;97473.72;5114652;28;20018;-68
2022/03/23 05:05:55;;;;;;;3.13;1.98;;;;;;;3.78;51.54;97479.66;5114004;28;20028;-68
2022/03/23 05:08:21;;;;;;;7.05;2.13;;;;;;;4.66;48.65;97485.91;5114545;28;20382;-68
2022/03/23 05:10:47;;;;;;;4.53;2.40;;;;;;;5.25;47.33;97477.25;5114547;28;20019;-67
2022/03/23 05:13:12;;;;;;;4.68;2.40;;;;;;;6.17;45.62;97477.84;5114379;28;20461;-67
2022/03/23 05:15:38;;;;;;;6.13;2.10;;;;;;;6.88;43.98;97478.25;5114332;28;20024;-68
2022/03/23 05:18:05;;;;;;;4.68;2.05;;;;;;;7.31;42.65;97476.97;5114304;28;20020;-68
2022/03/23 05:20:30;;;;;;;6.57;3.08;;;;;;;8.02;40.40;97476.19;5114388;28;20050;-68
2022/03/23 05:22:56;;;;;;;14.82;8.93;;;;;;;8.68;39.69;97486.63;5114269;28;20446;-68
2022/03/23 05:25:22;;;;;;;5.63;2.97;;;;;;;8.89;37.81;97489.78;5114319;28;20043;-68
2022/03/23 05:27:48;;;;;;;8.80;2.60;;;;;;;9.26;37.18;97480.47;5112957;28;20024;-68
2022/03/23 05:30:14;;;;;;;9.05;2.90;;;;;;;9.62;35.55;97475.44;5114022;28;20028;-68
2022/03/23 05:32:41;;;;;;;4.93;2.13;;;;;;;9.55;35.10;97481.69;5113762;28;20430;-68
2022/03/23 05:35:08;;;;;;;5.50;2.40;;;;;;;9.63;34.62;97479.78;5113938;28;20104;-68
2022/03/23 05:37:34;;;;;;;4.60;2.45;;;;;;;9.64;34.19;97472.81;5114204;28;20020;-68
2022/03/23 05:40:01;;;;;;;6.45;2.20;;;;;;;9.83;34.32;97483.75;5113893;28;20047;-69
2022/03/23 05:42:27;;;;;;;4.57;2.50;;;;;;;10.30;34.38;97477.56;5113914;28;20028;-68
2022/03/23 05:44:53;;;;;;;6.47;2.72;;;;;;;10.50;33.90;97482.38;5113911;28;20114;-68
2022/03/23 05:47:19;;;;;;;3.13;2.30;;;;;;;10.26;33.87;97482.00;5113875;28;20537;-69
2022/03/23 05:49:44;;;;;;;7.25;3.20;;;;;;;10.89;32.62;97481.47;5113800;28;20111;-68
2022/03/23 05:52:10;;;;;;;5.20;2.45;;;;;;;10.94;32.08;97490.09;5113809;28;20055;-68
2022/03/23 05:54:35;;;;;;;3.38;2.00;;;;;;;11.16;31.29;97484.31;5112496;28;20118;-69
2022/03/23 05:57:02;;;;;;;5.07;2.40;;;;;;;11.22;31.04;97488.53;5113656;28;20020;-67
2022/03/23 05:59:29;;;;;;;5.70;2.45;;;;;;;11.50;30.17;97487.84;5113604;28;20027;-68
2022/03/23 06:01:55;;;;;;;4.07;2.05;;;;;;;12.12;29.01;97495.78;5113581;28;20012;-69
2022/03/23 06:04:21;;;;;;;5.70;2.05;;;;;;;12.73;28.25;97500.06;5113633;28;20381;-69
2022/03/23 06:06:47;;;;;;;5.32;2.47;;;;;;;13.21;27.51;97491.53;5113624;28;20027;-67
2022/03/23 06:09:12;;;;;;;6.40;2.47;;;;;;;12.84;27.76;97497.09;5112422;28;20016;-68
2022/03/23 06:11:39;;;;;;;4.75;2.45;;;;;;;12.81;27.69;97484.09;5113630;28;20031;-68
2022/03/23 06:14:05;;;;;;;5.80;2.60;;;;;;;13.40;26.56;97494.44;5113796;28;20020;-68
2022/03/23 06:16:30;;;;;;;5.25;2.50;;;;;;;13.00;26.10;97494.84;5113523;28;20030;-68
2022/03/23 06:18:56;;;;;;;3.63;2.00;;;;;;;13.59;26.27;97492.06;5115262;28;20069;-69
2022/03/23 06:21:22;;;;;;;4.75;1.92;;;;;;;13.36;25.41;97487.53;5117745;28;20364;-68
2022/03/23 06:23:47;;;;;;;6.82;2.65;;;;;;;13.45;25.16;97492.47;5117691;28;20036;-67
2022/03/23 06:26:13;;;;;;;8.90;1.88;;;;;;;13.57;25.23;97493.03;5117534;28;20058;-67
2022/03/23 06:28:38;;;;;;;4.45;2.10;;;;;;;12.90;25.79;97482.91;5117663;28;20055;-69
2022/03/23 06:31:04;;;;;;;4.22;2.08;;;;;;;12.80;27.47;97492.88;5117423;28;20027;-66
2022/03/23 06:33:29;;;;;;;7.97;2.28;;;;;;;12.84;26.26;97507.63;5117461;28;20362;-67
2022/03/23 06:35:55;;;;;;;4.47;2.75;;;;;;;12.38;26.16;97499.41;5117356;28;20032;-68
2022/03/23 06:38:21;;;;;;;3.47;2.15;;;;;;;12.21;27.42;97494.63;5117631;28;20027;-68
2022/03/23 06:40:47;;;;;;;4.35;2.70;;;;;;;12.15;26.60;97495.69;5117303;28;20119;-68
2022/03/23 06:43:12;;;;;;;3.53;2.20;;;;;;;11.57;27.11;97499.00;5117409;28;20016;-66
2022/03/23 06:45:40;;;;;;;3.67;2.10;;;;;;;11.16;28.18;97501.78;5117251;28;20031;-66
2022/03/23 06:48:06;;;;;;;3.92;2.28;;;;;;;11.00;27.85;97486.47;5117230;28;20031;-66
2022/03/23 06:50:32;;;;;;;4.00;2.20;;;;;;;10.84;28.50;97501.69;5117239;28;20023;-67
2022/03/23 06:52:57;;;;;;;14.73;2.63;;;;;;;10.58;28.14;97498.78;5117199;28;20027;-66
2022/03/23 06:55:23;;;;;;;5.75;2.45;;;;;;;9.92;29.69;97491.44;5117020;27;20031;-68
2022/03/23 06:57:48;;;;;;;3.08;1.90;;;;;;;10.10;30.61;97473.63;5116908;28;20461;-66
2022/03/23 07:00:14;;;;;;;5.15;2.10;;;;;;;9.77;29.32;97487.38;5116957;27;20023;-68
2022/03/23 07:02:42;;;;;;;5.22;2.10;;;;;;;9.29;30.10;97489.13;5117055;28;20381;-68
2022/03/23 07:05:08;;;;;;;4.47;2.30;;;;;;;9.25;29.62;97466.56;5116879;28;20026;-67
2022/03/23 07:07:35;;;;;;;6.53;2.30;;;;;;;9.73;30.57;97475.25;5116830;28;20114;-66
2022/03/23 07:10:02;;;;;;;3.83;2.55;;;;;;;9.92;28.24;97464.41;5116903;27;20519;-65
2022/03/23 07:12:28;;;;;;;5.82;2.20;;;;;;;9.71;29.05;97462.22;5116667;28;20024;-66
2022/03/23 07:14:53;;;;;;;5.55;2.08;;;;;;;9.55;28.80;97437.28;5116877;28;20026;-67
2022/03/23 07:17:19;;;;;;;5.15;2.03;;;;;;;9.43;28.57;97449.69;5116977;28;20016;-66
2022/03/23 07:19:45;;;;;;;7.38;2.15;;;;;;;9.43;28.30;97454.06;5116658;28;20031;-68
2022/03/23 07:22:11;;;;;;;3.00;2.10;;;;;;;9.21;28.71;97459.66;5116578;28;20042;-70
2022/03/23 07:24:37;;;;;;;7.25;2.00;;;;;;;9.38;28.25;97455.88;5116444;28;20024;-67
2022/03/23 07:27:03;;;;;;;3.60;1.90;;;;;;;9.24;28.37;97459.59;5116568;28;20020;-67
2022/03/23 07:29:28;;;;;;;3.15;2.03;;;;;;;9.21;28.35;97449.19;5116070;28;20020;-67
2022/03/23 07:31:54;;;;;;;4.65;2.10;;;;;;;9.22;27.71;97450.94;5116420;28;20027;-67
2022/03/23 07:34:19;;;;;;;3.35;1.90;;;;;;;9.40;27.03;97454.97;5116271;28;20062;-64
2022/03/23 07:36:48;;;;;;;5.10;1.90;;;;;;;9.29;28.51;97464.75;5116512;28;20019;-67
2022/03/23 07:39:16;;;;;;;4.07;1.73;;;;;;;9.13;27.23;97472.84;5116007;28;20030;-66
2022/03/23 07:41:43;;;;;;;4.90;2.17;;;;;;;9.10;28.12;97473.75;5116437;28;20479;-67
2022/03/23 07:44:09;;;;;;;5.10;1.95;;;;;;;9.23;27.40;97456.16;5116261;28;20028;-67
2022/03/23 07:46:36;;;;;;;4.22;2.33;;;;;;;9.55;27.84;97459.06;5116184;28;20049;-69
2022/03/23 07:49:01;;;;;;;3.65;1.67;;;;;;;9.31;27.18;97474.28;5115916;28;20110;-67
2022/03/23 07:51:27;;;;;;;4.88;2.20;;;;;;;8.92;27.37;97463.63;5115994;28;20047;-67
2022/03/23 07:53:53;;;;;;;3.03;1.98;;;;;;;9.01;28.42;97452.19;5115990;27;20023;-67
2022/03/23 07:56:18;;;;;;;3.25;1.98;;;;;;;9.28;28.14;97455.19;5115974;27;20035;-68
2022/03/23 07:58:44;;;;;;;6.70;1.70;;;;;;;8.93;27.34;97447.94;5115890;28;20047;-68
2022/03/23 08:01:09;;;;;;;4.18;2.20;;;;;;;8.86;28.42;97462.00;5115778;28;20081;-68
2022/03/23 08:03:35;;;;;;;5.65;1.77;;;;;;;8.90;27.68;97448.00;5115705;27;20024;-64
2022/03/23 08:06:00;;;;;;;4.97;1.98;;;;;;;8.87;27.89;97468.94;5115732;28;20119;-66
2022/03/23 08:08:26;;;;;;;4.47;2.47;;;;;;;8.92;27.75;97476.69;5115736;27;20431;-67
2022/03/23 08:10:52;;;;;;;4.43;2.03;;;;;;;9.06;28.18;97479.91;5115757;28;20035;-67
2022/03/23 08:13:17;;;;;;;6.97;2.50;;;;;;;9.33;28.83;97467.28;5115669;28;20088;-68
2022/03/23 08:15:44;;;;;;;4.82;2.22;;;;;;;9.39;27.58;97445.41;5115554;28;20023;-66
2022/03/23 08:18:09;;;;;;;3.80;2.15;;;;;;;9.32;27.68;97457.72;5115531;28;20023;-66
2022/03/23 08:20:35;;;;;;;3.83;2.00;;;;;;;9.02;27.37;97459.13;5115608;28;20027;-68
2022/03/23 08:23:03;;;;;;;7.50;2.30;;;;;;;9.17;27.65;97432.75;5115343;28;20046;-68
2022/03/23 08:25:29;;;;;;;3.78;2.10;;;;;;;9.31;27.72;97461.22;5115340;27;20057;-67
2022/03/23 08:27:56;;;;;;;3.95;2.50;;;;;;;9.21;26.65;97444.84;5115295;28;20474;-68
2022/03/23 08:30:22;;;;;;;3.05;2.40;;;;;;;9.00;27.28;97458.28;5115275;28;20047;-68
2022/03/23 08:32:48;;;;;;;5.07;2.53;;;;;;;9.01;27.85;97449.56;5115267;28;20093;-69
2022/03/23 08:35:14;;;;;;;7.38;2.03;;;;;;;9.00;27.63;97419.16;5115059;27;20065;-66
2022/03/23 08:37:39;;;;;;;4.93;2.10;;;;;;;8.99;27.50;97436.53;5115040;28;20116;-66
2022/03/23 08:40:06;;;;;;;3.90;2.38;;;;;;;9.19;27.37;97425.78;5114791;28;20439;-68
2022/03/23 08:42:31;;;;;;;7.45;2.65;;;;;;;9.51;27.41;97431.25;5114078;28;20020;-69
2022/03/23 08:44:57;;;;;;;5.47;2.35;;;;;;;9.61;27.43;97418.88;5115008;28;20110;-68
2022/03/23 08:47:23;;;;;;;5.30;1.95;;;;;;;9.64;26.14;97420.56;5115003;28;20027;-67
2022/03/23 08:49:49;;;;;;;3.72;2.22;;;;;;;10.10;25.50;97437.91;5114906;28;20093;-67
2022/03/23 08:52:15;;;;;;;8.55;2.55;;;;;;;10.18;25.80;97419.41;5114866;28;20497;-68
2022/03/23 08:54:41;;;;;;;5.72;2.10;;;;;;;9.87;26.81;97412.22;5114732;28;20031;-69
2022/03/23 08:57:07;;;;;;;5.18;2.22;;;;;;;10.00;26.11;97412.84;5114872;28;20106;-69
2022/03/23 08:59:32;;;;;;;6.05;2.22;;;;;;;10.11;25.41;97413.47;5114574;28;20091;-66
2022/03/23 09:01:58;;;;;;;5.57;2.63;;;;;;;10.15;25.41;97413.41;5114582;28;20425;-68
2022/03/23 09:04:24;;;;;;;5.50;2.50;;;;;;;9.88;24.96;97419.19;5114733;28;20028;-67
2022/03/23 09:06:49;;;;;;;7.78;2.35;;;;;;;9.65;25.71;97427.50;5114656;28;20080;-66
2022/03/23 09:09:15;;;;;;;3.33;2.35;;;;;;;10.02;25.83;97410.22;5114667;28;20020;-67
2022/03/23 09:11:43;;;;;;;4.60;2.40;;;;;;;10.18;24.50;97418.56;5114371;28;20050;-67
2022/03/23 09:14:10;;;;;;;4.75;2.60;;;;;;;10.15;25.74;97429.97;5114383;28;20106;-68
2022/03/23 09:16:36;;;;;;;4.90;2.72;;;;;;;10.07;24.73;97424.91;5114220;28;20094;-68
2022/03/23 09:19:02;;;;;;;5.30;3.00;;;;;;;10.14;25.08;97430.84;5114563;28;20443;-66
2022/03/23 09:21:27;;;;;;;6.53;3.05;;;;;;;10.10;24.71;97423.97;5114383;28;20024;-67
2022/03/23 09:23:53;;;;;;;4.55;2.75;;;;;;;9.90;24.90;97413.94;5114191;28;20032;-68
2022/03/23 09:26:18;;;;;;;9.32;2.50;;;;;;;9.92;25.76;97420.84;5114188;28;20047;-66
2022/03/23 09:28:44;;;;;;;11.23;2.50;;;;;;;10.18;25.80;97419.41;5114229;28;20106;-67
2022/03/23 09:31:10;;;;;;;6.70;2.42;;;;;;;10.34;24.89;97409.47;5114123;28;20024;-66
2022/03/23 09:33:36;;;;;;;3.10;2.55;;;;;;;10.49;24.29;97428.34;5114032;28;20073;-67
2022/03/23 09:36:01;;;;;;;6.13;2.28;;;;;;;10.25;25.26;97425.38;5113817;28;20465;-67
2022/03/23 09:38:29;;;;;;;7.20;2.70;;;;;;;10.43;25.29;97423.22;5113918;28;20031;-68
2022/03/23 09:40:56;;;;;;;3.72;2.45;;;;;;;10.78;24.19;97436.41;5112639;28;20048;-67
2022/03/23 09:43:23;;;;;;;4.50;2.10;;;;;;;10.57;24.71;97415.94;5112670;28;20389;-67
2022/03/23 09:45:51;;;;;;;5.05;2.50;;;;;;;10.64;23.83;97411.44;5114043;28;20039;-66
2022/03/23 09:48:26;;;;;;;5.65;2.85;;;;;;;10.64;23.70;97416.66;5113853;28;20474;-67
2022/03/23 09:50:55;;;;;;;5.55;2.45;;;;;;;10.85;24.58;97406.56;5113774;28;20027;-68
2022/03/23 09:53:23;;;;;;;2.97;2.15;;;;;;;10.75;23.00;97426.88;5113583;28;20019;-67
2022/03/23 09:55:51;;;;;;;3.75;2.33;;;;;;;10.83;24.82;97410.97;5113688;28;20055;-67
2022/03/23 09:58:17;;;;;;;3.65;2.25;;;;;;;10.88;23.66;97409.09;5113899;28;20019;-68
2022/03/23 10:00:44;;;;;;;5.22;2.47;;;;;;;10.92;23.78;97417.72;5113840;28;20389;-67
2022/03/23 10:03:09;;;;;;;4.55;2.33;;;;;;;10.77;23.47;97408.53;5113776;28;20421;-67
2022/03/23 10:06:09;;;;;;;14.18;2.22;;;;;;;10.91;23.96;97416.00;5113651;28;20073;-67
2022/03/23 10:09:07;;;;;;;3.90;2.70;;;;;;;11.15;22.68;97409.28;5113619;28;20485;-67
2022/03/23 10:12:10;;;;;;;3.40;2.30;;;;;;;11.27;23.15;97412.47;5113699;28;20092;-68
2022/03/23 10:15:13;;;;;;;2.70;1.90;;;;;;;11.24;23.44;97405.56;5113368;28;20020;-68
2022/03/23 10:17:59;;;;;;;7.60;2.42;;;;;;;11.27;22.63;97397.63;5113458;28;20040;-68
2022/03/23 10:20:24;;;;;;;5.78;2.50;;;;;;;11.43;22.98;97421.63;5113553;28;20026;-67
2022/03/23 10:22:53;;;;;;;2.70;2.20;;;;;;;11.37;22.07;97406.06;5113473;28;20020;-66
2022/03/23 10:25:21;;;;;;;3.70;2.30;;;;;;;11.54;21.57;97400.38;5113390;28;20351;-68
2022/03/23 10:27:46;;;;;;;2.35;1.70;;;;;;;11.52;20.64;97396.94;5113296;28;20016;-67
2022/03/23 10:30:16;;;;;;;4.18;2.08;;;;;;;11.41;21.41;97404.25;5113366;28;20371;-68
2022/03/23 10:32:43;;;;;;;3.08;2.10;;;;;;;11.43;22.50;97389.31;5113432;28;20028;-67
2022/03/23 10:35:14;;;;;;;2.75;1.88;;;;;;;11.38;20.79;97413.06;5113188;28;20023;-67
2022/03/23 10:37:40;;;;;;;3.13;1.98;;;;;;;11.28;20.55;97388.84;5113409;28;20085;-67
2022/03/23 10:40:10;;;;;;;4.88;2.35;;;;;;;11.35;22.03;97384.31;5113120;28;20070;-68
2022/03/23 10:42:39;;;;;;;4.90;1.93;;;;;;;11.09;19.76;97391.97;5113176;28;20027;-68
2022/03/23 10:45:10;;;;;;;2.97;1.67;;;;;;;11.10;20.82;97391.06;5113217;28;20253;-68
2022/03/23 10:47:38;;;;;;;5.10;2.03;;;;;;;10.96;20.46;97380.09;5113302;28;20024;-66
2022/03/23 10:50:17;;;;;;;2.45;1.77;;;;;;;11.03;20.53;97354.59;5113109;28;20015;-67
2022/03/23 10:52:58;;;;;;;3.83;2.17;;;;;;;11.12;22.17;97365.72;5113202;28;20027;-68
2022/03/23 10:55:24;;;;;;;;;;;;;;;11.08;22.35;97381.53;5113547;28;20066;-68
2022/03/23 10:58:07;;;;;;;4.43;2.40;;;;;;;11.19;21.09;97363.78;5113195;28;19968;-65
2022/03/23 11:00:39;;;;;;;4.18;2.20;;;;;;;11.43;21.70;97347.41;5113340;28;20019;-68
2022/03/23 11:03:07;;;;;;;5.00;2.35;;;;;;;11.36;21.74;97357.22;5111924;28;20053;-66
2022/03/23 11:05:33;;;;;;;6.45;2.58;;;;;;;11.47;22.87;97351.69;5115593;28;20093;-67
2022/03/23 11:08:09;;;;;;;5.85;2.25;;;;;;;11.73;22.16;97358.78;5117101;28;20469;-68
2022/03/23 11:19:11;;;;;;;2.80;2.00;;;;;;;11.40;22.52;97366.69;5116622;28;20026;-66
2022/03/23 11:21:56;;;;;;;6.55;2.70;;;;;;;11.41;23.17;97373.66;5116730;28;20080;-66
2022/03/23 11:24:23;;;;;;;3.97;2.75;;;;;;;11.44;22.55;97359.63;5116607;28;20031;-69
2022/03/23 11:26:50;;;;;;;3.97;2.55;;;;;;;11.41;22.88;97355.31;5116890;28;20035;-67
2022/03/23 11:29:17;;;;;;;4.22;2.20;;;;;;;11.48;23.75;97350.75;5116812;28;20377;-67
2022/03/23 11:31:45;;;;;;;6.35;2.30;;;;;;;11.48;23.06;97348.16;5116553;28;20104;-67
2022/03/23 11:34:13;;;;;;;3.97;2.55;;;;;;;11.48;22.67;97358.63;5116573;27;20023;-66
2022/03/23 11:36:40;;;;;;;8.45;3.10;;;;;;;11.32;23.33;97334.63;5116446;28;20024;-65
2022/03/23 11:39:05;;;;;;;3.70;2.30;;;;;;;11.51;24.29;97348.06;5116194;28;20373;-67
2022/03/23 11:41:32;;;;;;;3.33;2.30;;;;;;;11.50;22.17;97348.97;5116356;28;20020;-67
2022/03/23 11:43:58;;;;;;;4.65;2.60;;;;;;;11.67;22.67;97340.59;5116230;28;20016;-67
2022/03/23 11:46:25;;;;;;;5.45;2.30;;;;;;;11.74;22.90;97339.50;5116112;27;20020;-66
2022/03/23 11:49:12;;;;;;;4.97;2.28;;;;;;;11.88;22.72;97339.09;5115996;28;20081;-66
2022/03/23 11:51:46;;;;;;;7.03;2.28;;;;;;;11.78;22.22;97332.44;5115956;28;20046;-67
2022/03/23 11:55:37;;;;;;;6.75;2.40;;;;;;;12.06;23.08;97339.44;5115885;28;20023;-66
2022/03/23 11:57:18;;;;;;;2.88;1.90;;;;;;;11.97;22.47;97345.81;5115874;28;20092;-67
2022/03/23 11:59:45;;;;;;;4.22;2.35;;;;;;;11.91;22.12;97338.13;5115881;28;20023;-65